Time;durP1;ratioP1;P1;durP2;ratioP2;P2;SDS_P1;SDS_P2;PMS_P1;PMS_P2;Temp;Humidity;BMP_temperature;BMP_pressure;BME280_temperature;BME280_humidity;BME280_pressure;Samples;Min_cycle;Max_cycle;Signal;HPM_P1;HPM_P2
2022/07/22 00:00:55;;;;;;;;;;;15.20;99.90;;;;;;5114634;28;19915;-72
2022/07/22 00:03:22;;;;;;;;;;;15.30;99.90;;;;;;5114616;28;20065;-72
2022/07/22 00:05:48;;;;;;;;;;;15.30;99.90;;;;;;5114703;28;20266;-72
2022/07/22 00:08:15;;;;;;;;;;;15.40;99.90;;;;;;5114509;28;19915;-72
2022/07/22 00:10:42;;;;;;;;;;;15.50;99.90;;;;;;5114501;28;19953;-72
2022/07/22 00:13:09;;;;;;;;;;;15.60;99.90;;;;;;5114605;28;20021;-72
2022/07/22 00:15:35;;;;;;;;;;;15.80;99.90;;;;;;5114464;28;20342;-72
2022/07/22 00:18:02;;;;;;;;;;;15.80;99.90;;;;;;5114273;28;19907;-72
2022/07/22 00:20:29;;;;;;;;;;;15.70;99.90;;;;;;5092531;28;19912;-72
2022/07/22 00:22:55;;;;;;;;;;;15.70;99.90;;;;;;5076172;28;19970;-71
2022/07/22 00:25:22;;;;;;;;;;;15.60;99.90;;;;;;5072910;28;20051;-72
2022/07/22 00:27:49;;;;;;;;;;;15.60;99.90;;;;;;5099636;28;19947;-72
2022/07/22 00:30:16;;;;;;;;;;;15.60;99.90;;;;;;5113970;28;20384;-72
2022/07/22 00:32:43;;;;;;;;;;;15.60;99.90;;;;;;5114301;28;20055;-72
2022/07/22 00:35:09;;;;;;;;;;;15.70;99.90;;;;;;5114193;28;19908;-72
2022/07/22 00:37:36;;;;;;;;;;;15.70;99.90;;;;;;5114120;28;20002;-72
2022/07/22 00:40:03;;;;;;;;;;;15.80;99.90;;;;;;5113798;28;19908;-73
2022/07/22 00:42:30;;;;;;;;;;;15.70;99.90;;;;;;5113855;28;20362;-72
2022/07/22 00:44:57;;;;;;;;;;;15.80;99.90;;;;;;5114027;28;19915;-73
2022/07/22 00:47:24;;;;;;;;;;;15.70;99.90;;;;;;5114083;28;19998;-72
2022/07/22 00:49:50;;;;;;;;;;;15.90;99.90;;;;;;5113541;28;19908;-72
2022/07/22 00:52:18;;;;;;;;;;;15.90;99.90;;;;;;5113666;28;19922;-72
2022/07/22 00:54:45;;;;;;;;;;;16.10;99.90;;;;;;5113676;28;19994;-72
2022/07/22 00:57:12;;;;;;;;;;;16.20;99.90;;;;;;5114086;28;19960;-72
2022/07/22 00:59:38;;;;;;;;;;;16.30;99.90;;;;;;5113884;28;19915;-72
2022/07/22 01:02:05;;;;;;;;;;;16.30;99.90;;;;;;5113523;28;19907;-72
2022/07/22 01:04:32;;;;;;;;;;;16.20;99.90;;;;;;5113901;28;20041;-72
2022/07/22 01:06:59;;;;;;;;;;;16.10;99.90;;;;;;5113865;28;19914;-71
2022/07/22 01:09:25;;;;;;;;;;;16.30;99.90;;;;;;5113585;28;19953;-72
2022/07/22 01:11:52;;;;;;;;;;;16.30;99.90;;;;;;5113709;28;19907;-72
2022/07/22 01:14:19;;;;;;;;;;;16.50;99.90;;;;;;5113383;28;20274;-72
2022/07/22 01:16:45;;;;;;;;;;;16.70;99.90;;;;;;5113572;28;19965;-69
2022/07/22 01:19:12;;;;;;;;;;;16.90;99.90;;;;;;5113859;28;19962;-70
2022/07/22 01:21:39;;;;;;;;;;;17.10;99.90;;;;;;5113301;28;20280;-71
2022/07/22 01:24:07;;;;;;;;;;;17.40;99.90;;;;;;5113248;28;19977;-70
2022/07/22 01:26:34;;;;;;;;;;;17.30;99.90;;;;;;5113495;28;19915;-71
2022/07/22 01:29:01;;;;;;;;;;;17.10;99.90;;;;;;5113726;28;20358;-71
2022/07/22 01:31:28;;;;;;;;;;;16.90;99.90;;;;;;5113702;28;19944;-70
2022/07/22 01:33:54;;;;;;;;;;;16.60;99.90;;;;;;5113550;28;19908;-70
2022/07/22 01:36:22;;;;;;;;;;;16.50;99.90;;;;;;5113474;28;19919;-71
2022/07/22 01:38:48;;;;;;;;;;;16.30;99.90;;;;;;5113342;28;19908;-70
2022/07/22 01:41:15;;;;;;;;;;;16.30;99.90;;;;;;5113436;28;19951;-70
2022/07/22 01:43:42;;;;;;;;;;;16.30;99.90;;;;;;5113449;28;19924;-70
2022/07/22 01:46:08;;;;;;;;;;;16.40;99.90;;;;;;5113300;28;19908;-70
2022/07/22 01:48:35;;;;;;;;;;;16.40;99.90;;;;;;5113356;28;20003;-70
2022/07/22 01:51:02;;;;;;;;;;;16.50;99.90;;;;;;5113419;28;19908;-70
2022/07/22 01:53:29;;;;;;;;;;;16.40;99.90;;;;;;5113176;28;19908;-70
2022/07/22 01:55:56;;;;;;;;;;;16.30;99.90;;;;;;5113370;28;20376;-70
2022/07/22 01:58:22;;;;;;;;;;;16.30;99.90;;;;;;5113176;28;19915;-70
2022/07/22 02:00:49;;;;;;;;;;;16.30;99.90;;;;;;5113308;28;19908;-70
2022/07/22 02:03:16;;;;;;;;;;;16.30;99.90;;;;;;5114784;28;19916;-71
2022/07/22 02:05:43;;;;;;;;;;;16.20;99.90;;;;;;5086633;28;19932;-70
2022/07/22 02:08:10;;;;;;;;;;;16.10;99.90;;;;;;5075087;28;20529;-71
2022/07/22 02:10:37;;;;;;;;;;;16.20;99.90;;;;;;5098884;28;19954;-71
2022/07/22 02:13:04;;;;;;;;;;;16.30;99.90;;;;;;5116355;28;20273;-71
2022/07/22 02:15:31;;;;;;;;;;;16.50;99.90;;;;;;5116625;28;19960;-70
2022/07/22 02:17:57;;;;;;;;;;;16.60;99.90;;;;;;5116429;28;19941;-71
2022/07/22 02:20:24;;;;;;;;;;;16.40;99.90;;;;;;5114959;28;19911;-71
2022/07/22 02:22:51;;;;;;;;;;;16.20;99.90;;;;;;5116004;28;19916;-71
2022/07/22 02:25:17;;;;;;;;;;;16.20;99.90;;;;;;5116280;28;19908;-71
2022/07/22 02:27:44;;;;;;;;;;;16.20;99.90;;;;;;5116358;28;20002;-72
2022/07/22 02:30:11;;;;;;;;;;;16.10;99.90;;;;;;5116010;28;19912;-72
2022/07/22 02:32:38;;;;;;;;;;;16.00;99.90;;;;;;5116336;28;19977;-72
2022/07/22 02:35:05;;;;;;;;;;;15.90;99.90;;;;;;5116456;28;19931;-72
2022/07/22 02:37:32;;;;;;;;;;;15.80;99.90;;;;;;5116381;28;19970;-72
2022/07/22 02:39:59;;;;;;;;;;;15.70;99.90;;;;;;5116224;28;19934;-71
2022/07/22 02:42:26;;;;;;;;;;;15.60;99.90;;;;;;5115825;28;19941;-72
2022/07/22 02:44:52;;;;;;;;;;;15.60;99.90;;;;;;5116317;28;19915;-72
2022/07/22 02:47:19;;;;;;;;;;;15.70;99.90;;;;;;5116263;28;20403;-72
2022/07/22 02:49:46;;;;;;;;;;;15.80;99.90;;;;;;5116369;28;19908;-72
2022/07/22 02:52:12;;;;;;;;;;;15.80;99.90;;;;;;5115795;28;19950;-72
2022/07/22 02:54:39;;;;;;;;;;;15.90;99.90;;;;;;5116900;28;20401;-70
2022/07/22 02:57:06;;;;;;;;;;;15.80;99.90;;;;;;5116152;28;20354;-72
2022/07/22 02:59:33;;;;;;;;;;;15.70;99.90;;;;;;5116531;28;19915;-73
2022/07/22 03:01:59;;;;;;;;;;;15.60;99.90;;;;;;5116374;28;20003;-72
2022/07/22 03:04:26;;;;;;;;;;;15.60;99.90;;;;;;5117824;28;19918;-72
2022/07/22 03:06:53;;;;;;;;;;;15.80;99.90;;;;;;5122380;28;19994;-70
2022/07/22 03:09:19;;;;;;;;;;;15.70;99.90;;;;;;5116401;28;20274;-72
2022/07/22 03:11:46;;;;;;;;;;;15.40;99.90;;;;;;5117524;28;19952;-73
2022/07/22 03:14:13;;;;;;;;;;;15.00;99.90;;;;;;5117320;28;19946;-72
2022/07/22 03:16:39;;;;;;;;;;;14.70;99.90;;;;;;5128485;28;19908;-73
2022/07/22 03:19:06;;;;;;;;;;;14.70;99.90;;;;;;5132489;28;19919;-73
2022/07/22 03:21:33;;;;;;;;;;;14.50;99.90;;;;;;5129297;28;19915;-73
2022/07/22 03:24:00;;;;;;;;;;;14.40;99.90;;;;;;5123106;28;19916;-73
2022/07/22 03:26:27;;;;;;;;;;;14.40;99.90;;;;;;5119815;28;19912;-71
2022/07/22 03:28:53;;;;;;;;;;;14.20;99.90;;;;;;5116925;28;19907;-70
2022/07/22 03:31:20;;;;;;;;;;;14.10;99.90;;;;;;5115504;28;19908;-73
2022/07/22 03:33:47;;;;;;;;;;;14.00;99.90;;;;;;5115667;28;19912;-73
2022/07/22 03:36:14;;;;;;;;;;;14.00;99.90;;;;;;5115267;28;19939;-73
2022/07/22 03:38:40;;;;;;;;;;;14.00;99.90;;;;;;5115313;28;20281;-73
2022/07/22 03:41:07;;;;;;;;;;;14.10;99.90;;;;;;5115164;28;19930;-73
2022/07/22 03:43:34;;;;;;;;;;;14.00;99.90;;;;;;5115135;28;20006;-73
2022/07/22 03:46:00;;;;;;;;;;;14.10;99.90;;;;;;5115167;28;19914;-73
2022/07/22 03:48:27;;;;;;;;;;;14.00;99.90;;;;;;5115105;28;19908;-73
2022/07/22 03:50:54;;;;;;;;;;;14.20;99.90;;;;;;5114891;28;19908;-73
2022/07/22 03:53:20;;;;;;;;;;;14.10;99.90;;;;;;5115028;28;19915;-73
2022/07/22 03:55:47;;;;;;;;;;;14.30;99.90;;;;;;5115014;28;19908;-73
2022/07/22 03:58:15;;;;;;;;;;;14.30;99.90;;;;;;5114706;28;19943;-73
2022/07/22 04:00:42;;;;;;;;;;;14.40;99.90;;;;;;5114978;28;19916;-73
2022/07/22 04:03:09;;;;;;;;;;;14.40;99.90;;;;;;5114763;28;19966;-73
2022/07/22 04:05:35;;;;;;;;;;;14.40;99.90;;;;;;5114891;28;20451;-73
2022/07/22 04:08:02;;;;;;;;;;;14.40;99.90;;;;;;5114638;28;20294;-73
2022/07/22 04:10:29;;;;;;;;;;;14.40;99.90;;;;;;5114799;28;19923;-73
2022/07/22 04:12:56;;;;;;;;;;;14.30;99.90;;;;;;5114547;28;19960;-73
2022/07/22 04:15:22;;;;;;;;;;;14.20;99.90;;;;;;5114619;28;19915;-73
2022/07/22 04:17:49;;;;;;;;;;;14.10;99.90;;;;;;5114571;28;20361;-73
2022/07/22 04:20:17;;;;;;;;;;;14.00;99.90;;;;;;5114273;28;19915;-73
2022/07/22 04:22:44;;;;;;;;;;;14.00;99.90;;;;;;5114384;28;20014;-73
2022/07/22 04:25:10;;;;;;;;;;;13.90;99.90;;;;;;5113717;28;19915;-73
2022/07/22 04:27:37;;;;;;;;;;;13.80;99.90;;;;;;5113164;28;20357;-73
2022/07/22 04:30:04;;;;;;;;;;;13.70;99.90;;;;;;5114183;28;19907;-73
2022/07/22 04:32:31;;;;;;;;;;;13.60;99.90;;;;;;5114294;28;19912;-73
2022/07/22 04:34:57;;;;;;;;;;;13.60;99.90;;;;;;5114172;28;19908;-73
2022/07/22 04:37:24;;;;;;;;;;;13.40;99.90;;;;;;5114047;28;19991;-73
2022/07/22 04:39:51;;;;;;;;;;;13.30;99.90;;;;;;5114303;28;19914;-74
2022/07/22 04:42:18;;;;;;;;;;;13.30;99.90;;;;;;5113497;28;20278;-73
2022/07/22 04:44:48;;;;;;;;;;;13.40;99.90;;;;;;5113287;28;20145;-73
2022/07/22 04:47:14;;;;;;;;;;;13.40;99.90;;;;;;5113968;28;19907;-73
2022/07/22 04:49:41;;;;;;;;;;;13.40;99.90;;;;;;5113794;28;19953;-73
2022/07/22 04:52:08;;;;;;;;;;;13.40;99.90;;;;;;5113715;28;19908;-73
2022/07/22 04:54:35;;;;;;;;;;;13.40;99.90;;;;;;5114010;28;19908;-73
2022/07/22 04:57:02;;;;;;;;;;;13.30;99.90;;;;;;5113787;28;20289;-73
2022/07/22 04:59:29;;;;;;;;;;;13.40;99.90;;;;;;5096978;28;19912;-73
2022/07/22 05:01:56;;;;;;;;;;;13.40;99.90;;;;;;5080535;28;19912;-73
2022/07/22 05:04:22;;;;;;;;;;;13.40;99.90;;;;;;5072618;28;19956;-73
2022/07/22 05:06:49;;;;;;;;;;;13.40;99.90;;;;;;5074908;28;19908;-73
2022/07/22 05:09:16;;;;;;;;;;;13.30;99.90;;;;;;5113472;28;19961;-72
2022/07/22 05:11:42;;;;;;;;;;;13.40;99.90;;;;;;5113847;28;19914;-73
2022/07/22 05:14:09;;;;;;;;;;;13.50;99.90;;;;;;5113486;28;19908;-72
2022/07/22 05:16:37;;;;;;;;;;;13.60;99.90;;;;;;5113700;28;19915;-73
2022/07/22 05:19:05;;;;;;;;;;;13.60;99.90;;;;;;5113732;28;19944;-72
2022/07/22 05:21:32;;;;;;;;;;;13.50;99.90;;;;;;5113609;28;19914;-72
2022/07/22 05:23:58;;;;;;;;;;;13.50;99.90;;;;;;5113344;28;19916;-72
2022/07/22 05:26:28;;;;;;;;;;;13.60;99.90;;;;;;5113387;28;19908;-72
2022/07/22 05:28:55;;;;;;;;;;;13.60;99.90;;;;;;5113614;28;19944;-72
2022/07/22 05:31:22;;;;;;;;;;;13.60;99.90;;;;;;5113596;28;19951;-72
2022/07/22 05:33:48;;;;;;;;;;;13.60;99.90;;;;;;5113433;28;20362;-72
2022/07/22 05:36:15;;;;;;;;;;;13.60;99.90;;;;;;5115467;28;20264;-72
2022/07/22 05:38:42;;;;;;;;;;;13.60;99.90;;;;;;5117498;28;20353;-73
2022/07/22 05:41:08;;;;;;;;;;;13.50;99.90;;;;;;5117396;28;19916;-73
2022/07/22 05:43:36;;;;;;;;;;;13.50;99.90;;;;;;5117602;28;19919;-73
2022/07/22 05:46:02;;;;;;;;;;;13.50;99.90;;;;;;5117338;28;19919;-72
2022/07/22 05:48:29;;;;;;;;;;;13.50;99.90;;;;;;5117466;27;19930;-73
2022/07/22 05:50:56;;;;;;;;;;;13.50;99.90;;;;;;5117397;28;20393;-73
2022/07/22 05:53:23;;;;;;;;;;;13.50;99.90;;;;;;5117169;28;19908;-73
2022/07/22 05:55:50;;;;;;;;;;;13.60;99.90;;;;;;5117422;28;20316;-73
2022/07/22 05:58:17;;;;;;;;;;;13.50;99.90;;;;;;5117079;28;19995;-73
2022/07/22 06:00:43;;;;;;;;;;;13.60;99.90;;;;;;5117313;28;19951;-73
2022/07/22 06:03:10;;;;;;;;;;;13.60;99.90;;;;;;5115995;28;20430;-73
2022/07/22 06:05:37;;;;;;;;;;;13.50;99.90;;;;;;5117163;28;20008;-73
2022/07/22 06:08:04;;;;;;;;;;;13.60;99.90;;;;;;5116697;28;19915;-73
2022/07/22 06:10:31;;;;;;;;;;;13.60;99.90;;;;;;5117116;28;20269;-73
2022/07/22 06:12:58;;;;;;;;;;;13.50;99.90;;;;;;5117441;28;19908;-72
2022/07/22 06:15:24;;;;;;;;;;;13.40;99.90;;;;;;5117396;28;19908;-72
2022/07/22 06:17:51;;;;;;;;;;;13.40;99.90;;;;;;5116794;28;20285;-73
2022/07/22 06:20:18;;;;;;;;;;;13.40;99.90;;;;;;5116643;28;19915;-72
2022/07/22 06:22:44;;;;;;;;;;;13.50;99.90;;;;;;5116719;28;19966;-73
2022/07/22 06:25:11;;;;;;;;;;;13.50;99.90;;;;;;5116780;28;19915;-72
2022/07/22 06:27:38;;;;;;;;;;;13.50;99.90;;;;;;5116703;28;19908;-73
2022/07/22 06:30:05;;;;;;;;;;;13.50;99.90;;;;;;5115272;28;19958;-73
2022/07/22 06:32:32;;;;;;;;;;;13.40;99.90;;;;;;5116621;28;19907;-72
2022/07/22 06:34:58;;;;;;;;;;;13.40;99.90;;;;;;5116599;28;19931;-72
2022/07/22 06:37:25;;;;;;;;;;;13.40;99.90;;;;;;5116459;28;19908;-70
2022/07/22 06:39:52;;;;;;;;;;;13.40;99.90;;;;;;5116380;28;19915;-71
2022/07/22 06:42:19;;;;;;;;;;;13.50;99.90;;;;;;5116044;28;19967;-72
2022/07/22 06:44:45;;;;;;;;;;;13.50;99.90;;;;;;5116454;28;20371;-72
2022/07/22 06:47:12;;;;;;;;;;;13.40;99.90;;;;;;5115425;28;19908;-72
2022/07/22 06:49:39;;;;;;;;;;;13.30;99.90;;;;;;5114941;28;19908;-72
2022/07/22 06:52:06;;;;;;;;;;;13.40;99.90;;;;;;5115768;28;19908;-72
2022/07/22 06:54:32;;;;;;;;;;;13.40;99.90;;;;;;5116206;28;20003;-72
2022/07/22 06:56:59;;;;;;;;;;;13.40;99.90;;;;;;5116161;28;19908;-71
2022/07/22 06:59:26;;;;;;;;;;;13.50;99.90;;;;;;5116166;28;20277;-72
2022/07/22 07:01:52;;;;;;;;;;;13.40;99.90;;;;;;5115956;28;20396;-72
2022/07/22 07:04:19;;;;;;;;;;;13.40;99.90;;;;;;5115741;28;19915;-72
2022/07/22 07:06:47;;;;;;;;;;;13.40;99.90;;;;;;5115769;28;19908;-72
2022/07/22 07:09:13;;;;;;;;;;;13.40;99.90;;;;;;5116131;28;20335;-71
2022/07/22 07:11:40;;;;;;;;;;;13.50;99.90;;;;;;5116015;28;19908;-71
2022/07/22 07:14:07;;;;;;;;;;;13.50;99.90;;;;;;5115625;28;19912;-71
2022/07/22 07:16:33;;;;;;;;;;;13.50;99.90;;;;;;5115677;28;20285;-71
2022/07/22 07:19:00;;;;;;;;;;;13.60;99.90;;;;;;5115978;28;19908;-71
2022/07/22 07:21:27;;;;;;;;;;;13.60;99.90;;;;;;5115541;28;20379;-72
2022/07/22 07:23:54;;;;;;;;;;;13.60;99.90;;;;;;5115507;28;19915;-72
2022/07/22 07:26:21;;;;;;;;;;;13.60;99.90;;;;;;5114114;28;19912;-72
2022/07/22 07:28:49;;;;;;;;;;;13.50;99.90;;;;;;5115808;28;19953;-72
2022/07/22 07:31:17;;;;;;;;;;;13.40;99.90;;;;;;5115727;28;20284;-72
2022/07/22 07:33:44;;;;;;;;;;;13.40;99.90;;;;;;5115537;28;20366;-72
2022/07/22 07:36:11;;;;;;;;;;;13.30;99.90;;;;;;5115173;28;20409;-72
2022/07/22 07:38:37;;;;;;;;;;;13.30;99.90;;;;;;5115490;28;20361;-73
2022/07/22 07:41:04;;;;;;;;;;;13.20;99.90;;;;;;5115077;28;19912;-72
2022/07/22 07:43:31;;;;;;;;;;;13.20;99.90;;;;;;5115063;28;19920;-72
2022/07/22 07:45:58;;;;;;;;;;;13.20;99.90;;;;;;5115289;28;19954;-72
2022/07/22 07:48:24;;;;;;;;;;;13.20;99.90;;;;;;5115336;28;19908;-72
2022/07/22 08:00:55;;;;;;;;;;;13.20;99.90;;;;;;5090101;27;19916;-72
2022/07/22 08:03:21;;;;;;;;;;;13.30;99.90;;;;;;5090573;28;20274;-72
2022/07/22 08:05:48;;;;;;;;;;;13.30;99.90;;;;;;5091025;28;19930;-72
2022/07/22 08:08:15;;;;;;;;;;;13.30;99.90;;;;;;5090643;28;19916;-72
2022/07/22 08:10:42;;;;;;;;;;;13.30;99.90;;;;;;5089476;28;19958;-72
2022/07/22 08:13:09;;;;;;;;;;;13.30;99.90;;;;;;5090934;28;19915;-72
2022/07/22 08:15:36;;;;;;;;;;;13.30;99.90;;;;;;5090759;28;19909;-72
2022/07/22 08:18:03;;;;;;;;;;;13.20;99.90;;;;;;5089916;28;19966;-72
2022/07/22 08:20:30;;;;;;;;;;;13.20;99.90;;;;;;5090412;28;20278;-71
2022/07/22 08:22:57;;;;;;;;;;;13.10;99.90;;;;;;5090681;28;19908;-72
2022/07/22 08:25:24;;;;;;;;;;;13.10;99.90;;;;;;5090629;28;20263;-72
2022/07/22 08:27:51;;;;;;;;;;;13.10;99.90;;;;;;5090669;28;19908;-72
2022/07/22 08:30:18;;;;;;;;;;;13.20;99.90;;;;;;5090401;28;19915;-72
2022/07/22 08:32:45;;;;;;;;;;;13.20;99.90;;;;;;5090419;28;19978;-72
2022/07/22 08:35:12;;;;;;;;;;;13.20;99.90;;;;;;5090531;28;19995;-72
2022/07/22 08:37:38;;;;;;;;;;;13.20;99.90;;;;;;5090247;28;20305;-72
2022/07/22 08:40:06;;;;;;;;;;;13.20;99.90;;;;;;5090226;28;19916;-73
2022/07/22 08:42:37;;;;;;;;;;;13.20;99.90;;;;;;5088920;28;19919;-72
2022/07/22 08:45:04;;;;;;;;;;;13.20;99.90;;;;;;5090501;28;19913;-71
2022/07/22 08:47:31;;;;;;;;;;;13.30;99.90;;;;;;5090209;28;20252;-71
2022/07/22 08:49:57;;;;;;;;;;;13.30;99.90;;;;;;5090325;28;19915;-71
2022/07/22 08:52:24;;;;;;;;;;;13.30;99.90;;;;;;5089666;28;19931;-71
2022/07/22 08:54:51;;;;;;;;;;;13.30;99.90;;;;;;5090213;28;20274;-71
2022/07/22 08:57:18;;;;;;;;;;;13.20;99.90;;;;;;5090182;28;19913;-72
2022/07/22 08:59:51;;;;;;;;;;;13.30;99.90;;;;;;5089788;28;20007;-71
2022/07/22 09:02:19;;;;;;;;;;;13.30;99.90;;;;;;5089805;28;19913;-71
2022/07/22 09:05:00;;;;;;;;;;;13.20;99.90;;;;;;5089718;28;19909;-71
2022/07/22 09:07:31;;;;;;;;;;;13.20;99.90;;;;;;5089920;28;20000;-71
2022/07/22 09:09:59;;;;;;;;;;;13.20;99.90;;;;;;5088191;28;19908;-71
2022/07/22 09:12:27;;;;;;;;;;;13.20;99.90;;;;;;5075719;28;19908;-71
2022/07/22 09:14:56;;;;;;;;;;;13.20;99.90;;;;;;5076127;28;19913;-71
2022/07/22 09:17:28;;;;;;;;;;;13.20;99.90;;;;;;5076081;28;19909;-71
2022/07/22 09:19:55;;;;;;;;;;;13.20;99.90;;;;;;5076110;28;20302;-71
2022/07/22 09:22:42;;;;;;;;;;;13.20;99.90;;;;;;5075838;28;19944;-71
2022/07/22 09:25:21;;;;;;;;;;;13.20;99.90;;;;;;5075915;28;20002;-71
2022/07/22 09:27:49;;;;;;;;;;;13.20;99.90;;;;;;5076055;28;19908;-71
2022/07/22 09:30:20;;;;;;;;;;;13.20;99.90;;;;;;5075608;28;19909;-71
2022/07/22 09:32:47;;;;;;;;;;;13.20;99.90;;;;;;5076046;28;19995;-71
2022/07/22 09:35:15;;;;;;;;;;;13.30;99.90;;;;;;5075834;28;19908;-70
2022/07/22 09:37:48;;;;;;;;;;;13.40;99.90;;;;;;5074433;28;19995;-70
2022/07/22 09:40:16;;;;;;;;;;;13.40;99.90;;;;;;5075461;28;19917;-71
2022/07/22 09:42:50;;;;;;;;;;;13.40;99.90;;;;;;5075683;28;19909;-71
2022/07/22 09:45:17;;;;;;;;;;;13.40;99.90;;;;;;5075733;28;19909;-71
2022/07/22 09:47:44;;;;;;;;;;;13.40;99.90;;;;;;5075557;28;20007;-72
2022/07/22 09:50:18;;;;;;;;;;;13.30;99.90;;;;;;5075330;28;19909;-72
2022/07/22 09:52:45;;;;;;;;;;;13.30;99.90;;;;;;5075317;28;19908;-72
2022/07/22 09:55:14;;;;;;;;;;;13.30;99.90;;;;;;5075480;28;20014;-72
2022/07/22 09:57:41;;;;;;;;;;;13.30;99.90;;;;;;5075551;28;19912;-71
2022/07/22 10:00:09;;;;;;;;;;;13.20;99.90;;;;;;5074789;28;19920;-71
2022/07/22 10:02:40;;;;;;;;;;;13.20;99.90;;;;;;5075270;28;19923;-71
2022/07/22 10:05:08;;;;;;;;;;;13.20;99.90;;;;;;5075363;28;19915;-71
2022/07/22 10:07:36;;;;;;;;;;;13.20;99.90;;;;;;5075042;28;19961;-71
2022/07/22 10:10:03;;;;;;;;;;;13.10;99.90;;;;;;5074949;28;20401;-71
2022/07/22 10:12:31;;;;;;;;;;;13.00;99.90;;;;;;5075123;28;20316;-71
2022/07/22 10:14:58;;;;;;;;;;;12.90;99.90;;;;;;5075067;28;19909;-72
2022/07/22 10:17:25;;;;;;;;;;;12.90;99.90;;;;;;5075004;28;19908;-71
2022/07/22 10:19:52;;;;;;;;;;;12.90;99.90;;;;;;5074785;28;19920;-72
2022/07/22 10:22:36;;;;;;;;;;;12.90;99.90;;;;;;5073628;28;19912;-72
2022/07/22 10:25:03;;;;;;;;;;;12.90;99.90;;;;;;5075014;28;20369;-71
2022/07/22 10:27:50;;;;;;;;;;;12.90;99.90;;;;;;5074806;28;19909;-71
2022/07/22 10:30:19;;;;;;;;;;;12.90;99.90;;;;;;5074484;28;19920;-72
2022/07/22 10:32:46;;;;;;;;;;;12.90;99.90;;;;;;5074662;28;20419;-71
2022/07/22 10:35:12;;;;;;;;;;;12.90;99.90;;;;;;5074513;28;20009;-71
2022/07/22 10:37:43;;;;;;;;;;;12.90;99.90;;;;;;5074530;28;19908;-72
2022/07/22 10:40:14;;;;;;;;;;;12.90;99.90;;;;;;5074181;28;19917;-72
2022/07/22 10:42:59;;;;;;;;;;;12.90;99.90;;;;;;5074521;28;19913;-72
2022/07/22 10:45:27;;;;;;;;;;;12.90;99.90;;;;;;5073169;28;19908;-71
2022/07/22 10:47:55;;;;;;;;;;;12.80;99.90;;;;;;5063162;28;19920;-71
2022/07/22 10:50:37;;;;;;;;;;;12.80;99.90;;;;;;5057001;28;19919;-71
2022/07/22 10:53:14;;;;;;;;;;;12.80;99.90;;;;;;5052442;28;20265;-71
2022/07/22 10:55:59;;;;;;;;;;;12.70;99.90;;;;;;5067274;28;20299;-71
2022/07/22 10:58:35;;;;;;;;;;;12.70;99.90;;;;;;5051159;28;20436;-71
2022/07/22 11:01:03;;;;;;;;;;;12.60;99.90;;;;;;5051137;28;20422;-71
2022/07/22 11:03:30;;;;;;;;;;;12.70;99.90;;;;;;5051347;28;20359;-71
2022/07/22 11:05:59;;;;;;;;;;;12.60;99.90;;;;;;5051219;28;19913;-72
2022/07/22 11:08:26;;;;;;;;;;;12.60;99.90;;;;;;5051065;28;19913;-72
2022/07/22 11:10:53;;;;;;;;;;;12.70;99.90;;;;;;5051216;28;19912;-71
2022/07/22 11:13:32;;;;;;;;;;;12.60;99.90;;;;;;5051402;28;19943;-71
2022/07/22 11:16:15;;;;;;;;;;;12.50;99.90;;;;;;5050714;28;20401;-72
2022/07/22 11:18:46;;;;;;;;;;;12.50;99.90;;;;;;5051120;28;19915;-71
2022/07/22 11:21:14;;;;;;;;;;;12.50;99.90;;;;;;5051054;28;19919;-71
2022/07/22 11:23:41;;;;;;;;;;;12.60;99.90;;;;;;5051287;28;19917;-71
2022/07/22 11:26:26;;;;;;;;;;;12.50;99.90;;;;;;5051298;28;19909;-71
2022/07/22 11:28:52;;;;;;;;;;;12.50;99.90;;;;;;5050770;28;19916;-71
2022/07/22 11:31:19;;;;;;;;;;;12.50;99.90;;;;;;5051415;28;19908;-71
2022/07/22 11:33:46;;;;;;;;;;;12.50;99.90;;;;;;5050927;28;19959;-72
2022/07/22 11:36:31;;;;;;;;;;;12.50;99.90;;;;;;5051201;28;19912;-72
2022/07/22 11:39:16;;;;;;;;;;;12.60;99.90;;;;;;5050817;28;20019;-72
2022/07/22 11:41:43;;;;;;;;;;;12.60;99.90;;;;;;5050609;28;19909;-72
2022/07/22 11:44:09;;;;;;;;;;;12.60;99.90;;;;;;5050710;28;19909;-71
2022/07/22 11:46:40;;;;;;;;;;;12.70;99.90;;;;;;5050813;28;19912;-71
2022/07/22 11:49:08;;;;;;;;;;;12.70;99.90;;;;;;5049424;28;20359;-72
2022/07/22 11:51:35;;;;;;;;;;;12.70;99.90;;;;;;5050589;28;19967;-72
2022/07/22 11:54:02;;;;;;;;;;;12.60;99.90;;;;;;5050189;28;19923;-72
2022/07/22 11:56:30;;;;;;;;;;;12.60;99.90;;;;;;5050718;28;20012;-71
2022/07/22 11:58:57;;;;;;;;;;;12.70;99.90;;;;;;5050589;28;19928;-72
2022/07/22 12:01:25;;;;;;;;;;;12.70;99.90;;;;;;5050981;28;20579;-72
2022/07/22 12:03:59;;;;;;;;;;;12.80;99.90;;;;;;5050703;28;19908;-72
2022/07/22 12:06:26;;;;;;;;;;;12.70;99.90;;;;;;5048884;28;20355;-71
2022/07/22 12:09:02;;;;;;;;;;;12.70;99.90;;;;;;5050704;28;20270;-72
2022/07/22 12:11:29;;;;;;;;;;;12.80;99.90;;;;;;5050913;28;19909;-71
2022/07/22 12:13:55;;;;;;;;;;;12.80;99.90;;;;;;5050798;28;19909;-71
2022/07/22 12:16:26;;;;;;;;;;;12.80;99.90;;;;;;5050297;28;19908;-72
2022/07/22 12:19:03;;;;;;;;;;;12.80;99.90;;;;;;5050519;28;20268;-71
2022/07/22 12:21:30;;;;;;;;;;;12.80;99.90;;;;;;5050973;28;20042;-69
2022/07/22 12:24:00;;;;;;;;;;;12.80;99.90;;;;;;5051661;28;19909;-70
2022/07/22 12:26:47;;;;;;;;;;;12.80;99.90;;;;;;5052915;28;19916;-71
2022/07/22 12:29:18;;;;;;;;;;;12.80;99.90;;;;;;5050648;28;19912;-72
2022/07/22 12:31:51;;;;;;;;;;;12.70;99.90;;;;;;5050294;28;19909;-70
2022/07/22 12:34:29;;;;;;;;;;;12.80;99.90;;;;;;5049737;28;19909;-70
2022/07/22 12:36:56;;;;;;;;;;;12.80;99.90;;;;;;5050400;28;19908;-70
2022/07/22 12:39:22;;;;;;;;;;;12.80;99.90;;;;;;5050255;28;20008;-70
2022/07/22 12:41:53;;;;;;;;;;;12.80;99.90;;;;;;5050406;28;20386;-71
2022/07/22 12:44:21;;;;;;;;;;;12.80;99.90;;;;;;5050288;28;19931;-71
2022/07/22 12:46:49;;;;;;;;;;;12.80;99.90;;;;;;5052380;28;20027;-70
2022/07/22 12:49:17;;;;;;;;;;;12.70;99.90;;;;;;5054131;28;19913;-70
2022/07/22 12:52:05;;;;;;;;;;;12.70;99.90;;;;;;5053837;28;19923;-69
2022/07/22 12:54:33;;;;;;;;;;;12.70;99.90;;;;;;5054333;28;19912;-70
2022/07/22 12:57:00;;;;;;;;;;;12.70;99.90;;;;;;5054060;28;19943;-70
2022/07/22 12:59:26;;;;;;;;;;;12.70;99.90;;;;;;5053124;28;19987;-70
2022/07/22 13:01:53;;;;;;;;;;;12.70;99.90;;;;;;5053677;28;19909;-71
2022/07/22 13:04:20;;;;;;;;;;;12.70;99.90;;;;;;5053299;28;19997;-69
2022/07/22 13:06:46;;;;;;;;;;;12.60;99.90;;;;;;5053573;28;19913;-71
2022/07/22 13:09:13;;;;;;;;;;;12.70;99.90;;;;;;5053673;28;19913;-69
2022/07/22 13:11:43;;;;;;;;;;;12.70;99.90;;;;;;5053416;28;19918;-71
2022/07/22 13:14:10;;;;;;;;;;;12.70;99.90;;;;;;5053326;28;19932;-71
2022/07/22 13:16:37;;;;;;;;;;;12.70;99.90;;;;;;5053589;28;19912;-71
2022/07/22 13:19:04;;;;;;;;;;;12.70;99.90;;;;;;5053309;28;19959;-72
2022/07/22 13:21:30;;;;;;;;;;;12.60;99.90;;;;;;5053337;28;19913;-72
2022/07/22 13:23:57;;;;;;;;;;;12.60;99.90;;;;;;5053405;28;19938;-73
2022/07/22 13:26:25;;;;;;;;;;;12.60;99.90;;;;;;5052674;28;19959;-71
2022/07/22 13:28:52;;;;;;;;;;;12.60;99.90;;;;;;5053180;28;19947;-72
2022/07/22 13:31:19;;;;;;;;;;;12.60;99.90;;;;;;5053001;28;19967;-72
2022/07/22 13:33:45;;;;;;;;;;;12.60;99.90;;;;;;5053020;28;19948;-70
2022/07/22 13:36:12;;;;;;;;;;;12.60;99.90;;;;;;5052884;28;20007;-70
2022/07/22 13:38:40;;;;;;;;;;;12.60;99.90;;;;;;5052746;28;19954;-69
2022/07/22 13:41:16;;;;;;;;;;;12.60;99.90;;;;;;5053011;28;19952;-71
2022/07/22 13:43:44;;;;;;;;;;;12.60;99.90;;;;;;5053007;28;19916;-72
2022/07/22 13:46:10;;;;;;;;;;;12.60;99.90;;;;;;5052807;28;19913;-69
2022/07/22 13:48:37;;;;;;;;;;;12.60;99.90;;;;;;5052756;28;20375;-69
2022/07/22 13:51:04;;;;;;;;;;;12.50;99.90;;;;;;5052223;28;19913;-69
2022/07/22 13:53:31;;;;;;;;;;;12.50;99.90;;;;;;5052738;28;19952;-70
2022/07/22 13:55:58;;;;;;;;;;;12.50;99.90;;;;;;5052634;28;20003;-69
2022/07/22 13:58:25;;;;;;;;;;;12.50;99.90;;;;;;5052214;28;19954;-69
2022/07/22 14:00:51;;;;;;;;;;;12.50;99.90;;;;;;5052521;28;19917;-70
2022/07/22 14:03:18;;;;;;;;;;;12.50;99.90;;;;;;5052622;28;20567;-69
2022/07/22 14:05:45;;;;;;;;;;;12.40;99.90;;;;;;5052332;28;19920;-69
2022/07/22 14:08:11;;;;;;;;;;;12.40;99.90;;;;;;5052438;28;19913;-71
2022/07/22 14:10:38;;;;;;;;;;;12.40;99.90;;;;;;5078602;28;19908;-72
2022/07/22 14:13:06;;;;;;;;;;;12.40;99.90;;;;;;5093210;28;19977;-70
2022/07/22 14:15:33;;;;;;;;;;;12.40;99.90;;;;;;5093308;28;20385;-71
2022/07/22 14:18:00;;;;;;;;;;;12.40;99.90;;;;;;5093007;28;19920;-71
2022/07/22 14:20:27;;;;;;;;;;;12.30;99.90;;;;;;5093080;28;20021;-70
2022/07/22 14:22:53;;;;;;;;;;;12.30;99.90;;;;;;5093151;28;19912;-72
2022/07/22 14:25:20;;;;;;;;;;;12.30;99.90;;;;;;5092964;28;20354;-71
2022/07/22 14:27:47;;;;;;;;;;;12.30;99.90;;;;;;5093056;28;19916;-72
2022/07/22 14:30:14;;;;;;;;;;;12.30;99.90;;;;;;5092443;28;19957;-73